Time;durP1;ratioP1;P1;durP2;ratioP2;P2;SDS_P1;SDS_P2;PMS_P1;PMS_P2;Temp;Humidity;BMP_temperature;BMP_pressure;BME280_temperature;BME280_humidity;BME280_pressure;Samples;Min_cycle;Max_cycle;Signal;HPM_P1;HPM_P2
2024/03/14 00:00:29;;;;;;;12.98;6.35;;;;;;;;;;6300263;28;20838;-82
2024/03/14 00:03:32;;;;;;;14.02;5.57;;;;;;;;;;6305296;28;20048;-81
2024/03/14 00:06:34;;;;;;;13.47;6.50;;;;;;;;;;6312140;27;20039;-82
2024/03/14 00:09:36;;;;;;;19.92;7.25;;;;;;;;;;6317531;28;20048;-77
2024/03/14 00:12:37;;;;;;;18.45;7.38;;;;;;;;;;6332234;28;20088;-78
2024/03/14 00:15:39;;;;;;;15.90;6.93;;;;;;;;;;6339399;27;20031;-79
2024/03/14 00:18:41;;;;;;;15.85;7.95;;;;;;;;;;6317364;28;20032;-77
2024/03/14 00:21:43;;;;;;;17.00;7.40;;;;;;;;;;6339656;28;20028;-81
2024/03/14 00:24:45;;;;;;;14.23;7.22;;;;;;;;;;6304389;28;20043;-80
2024/03/14 00:27:47;;;;;;;15.95;7.75;;;;;;;;;;6304664;27;20521;-81
2024/03/14 00:30:49;;;;;;;16.33;7.90;;;;;;;;;;6316641;28;20047;-82
2024/03/14 00:33:51;;;;;;;17.60;7.68;;;;;;;;;;6305701;28;20045;-80
2024/03/14 00:36:53;;;;;;;15.73;7.65;;;;;;;;;;6336165;28;20318;-79
2024/03/14 00:39:55;;;;;;;14.87;6.77;;;;;;;;;;6325173;28;20048;-78
2024/03/14 00:42:57;;;;;;;13.60;6.78;;;;;;;;;;6334546;27;20467;-78
2024/03/14 00:45:58;;;;;;;17.20;7.95;;;;;;;;;;6306417;28;20248;-78
2024/03/14 00:49:00;;;;;;;13.40;7.03;;;;;;;;;;6308964;28;20049;-79
2024/03/14 00:52:02;;;;;;;15.77;7.07;;;;;;;;;;6319740;28;20097;-79
2024/03/14 00:55:08;;;;;;;13.38;6.95;;;;;;;;;;6305980;28;20497;-81
2024/03/14 00:58:11;;;;;;;13.45;6.85;;;;;;;;;;6350866;27;20028;-80
2024/03/14 01:01:13;;;;;;;14.85;7.28;;;;;;;;;;6296815;28;20056;-82
2024/03/14 01:04:17;;;;;;;15.05;7.38;;;;;;;;;;6293279;28;20052;-82
2024/03/14 01:07:19;;;;;;;23.92;8.93;;;;;;;;;;6307616;28;20044;-83
2024/03/14 01:10:21;;;;;;;19.27;8.68;;;;;;;;;;6305254;28;20036;-83
2024/03/14 01:13:23;;;;;;;18.63;8.13;;;;;;;;;;6284976;28;20048;-81
2024/03/14 01:16:26;;;;;;;18.63;7.90;;;;;;;;;;6291778;28;20485;-83
2024/03/14 01:19:28;;;;;;;;;;;;;;;;;;6276834;28;20055;-82
2024/03/14 01:22:30;;;;;;;15.65;7.40;;;;;;;;;;6273798;28;19928;-82
2024/03/14 01:25:31;;;;;;;13.30;7.18;;;;;;;;;;6258388;28;20043;-82
2024/03/14 01:28:33;;;;;;;15.30;7.20;;;;;;;;;;6276004;28;20033;-81
2024/03/14 01:31:36;;;;;;;12.60;6.95;;;;;;;;;;6271239;28;20049;-79
2024/03/14 01:34:37;;;;;;;12.63;6.95;;;;;;;;;;6279548;28;20048;-80
2024/03/14 01:37:39;;;;;;;15.50;7.30;;;;;;;;;;6286243;28;20119;-79
2024/03/14 01:40:41;;;;;;;13.32;7.18;;;;;;;;;;6276591;28;20090;-81
2024/03/14 01:43:59;;;;;;;12.98;7.20;;;;;;;;;;6272110;28;20075;-82
2024/03/14 01:47:01;;;;;;;16.85;6.65;;;;;;;;;;6289097;28;20507;-83
2024/03/14 01:50:05;;;;;;;17.45;7.18;;;;;;;;;;6295975;28;20048;-82
2024/03/14 01:53:07;;;;;;;17.55;7.35;;;;;;;;;;6289244;28;20048;-80
2024/03/14 01:56:09;;;;;;;11.63;5.82;;;;;;;;;;6303918;28;20643;-83
2024/03/14 01:59:13;;;;;;;13.60;6.53;;;;;;;;;;6300660;28;20052;-83
2024/03/14 02:02:15;;;;;;;15.95;6.30;;;;;;;;;;6284282;28;20044;-82
2024/03/14 02:05:24;;;;;;;13.73;5.90;;;;;;;;;;6270308;28;20044;-82
2024/03/14 02:08:26;;;;;;;11.30;5.57;;;;;;;;;;6261448;28;20051;-82
2024/03/14 02:11:28;;;;;;;11.98;6.55;;;;;;;;;;6306886;28;20048;-82
2024/03/14 02:14:30;;;;;;;13.45;5.80;;;;;;;;;;6278531;28;20043;-80
2024/03/14 02:17:33;;;;;;;16.98;6.10;;;;;;;;;;6305295;28;20051;-81
2024/03/14 02:20:34;;;;;;;15.73;6.40;;;;;;;;;;6313635;28;20048;-81
2024/03/14 02:23:36;;;;;;;17.85;6.85;;;;;;;;;;6308161;28;20047;-83
2024/03/14 02:26:41;;;;;;;17.90;6.03;;;;;;;;;;6304881;27;20547;-82
2024/03/14 02:29:43;;;;;;;15.07;6.78;;;;;;;;;;6315470;27;20051;-80
2024/03/14 02:32:45;;;;;;;29.48;7.95;;;;;;;;;;6295253;28;20052;-82
2024/03/14 02:35:47;;;;;;;18.25;7.32;;;;;;;;;;6255885;28;20052;-80
2024/03/14 02:38:49;;;;;;;17.02;7.65;;;;;;;;;;6297013;27;20051;-83
2024/03/14 02:41:51;;;;;;;14.48;7.18;;;;;;;;;;6284224;28;20506;-82
2024/03/14 02:44:53;;;;;;;18.27;7.90;;;;;;;;;;6303522;28;20035;-83
2024/03/14 02:47:54;;;;;;;64.25;9.10;;;;;;;;;;6299666;28;20049;-80
2024/03/14 02:50:56;;;;;;;68.57;10.23;;;;;;;;;;6298433;28;20044;-81
2024/03/14 02:53:59;;;;;;;28.13;8.07;;;;;;;;;;6308845;28;20040;-82
2024/03/14 02:57:01;;;;;;;26.92;7.03;;;;;;;;;;6308178;28;20056;-81
2024/03/14 03:00:10;;;;;;;39.90;9.02;;;;;;;;;;6310972;28;20119;-80
2024/03/14 03:03:12;;;;;;;16.75;6.75;;;;;;;;;;6308499;28;20048;-81
2024/03/14 03:06:15;;;;;;;20.25;7.40;;;;;;;;;;6308954;28;20404;-80
2024/03/14 03:09:16;;;;;;;22.30;7.28;;;;;;;;;;6295077;28;20045;-82
2024/03/14 03:12:18;;;;;;;20.10;8.20;;;;;;;;;;6298664;28;20043;-80
2024/03/14 03:15:20;;;;;;;17.30;8.20;;;;;;;;;;6283485;27;20418;-82
2024/03/14 03:18:22;;;;;;;19.52;8.40;;;;;;;;;;6323180;28;20336;-78
2024/03/14 03:21:25;;;;;;;20.00;8.03;;;;;;;;;;6334153;28;20501;-81
2024/03/14 03:24:26;;;;;;;19.40;7.37;;;;;;;;;;6312813;27;20442;-82
2024/03/14 03:27:28;;;;;;;15.85;6.55;;;;;;;;;;6307390;28;20438;-82
2024/03/14 03:30:30;;;;;;;15.85;6.35;;;;;;;;;;6293147;28;20074;-79
2024/03/14 03:33:32;;;;;;;19.73;6.57;;;;;;;;;;6308895;28;20052;-82
2024/03/14 03:36:33;;;;;;;23.05;6.53;;;;;;;;;;6307167;28;20047;-82
2024/03/14 03:39:35;;;;;;;53.08;8.45;;;;;;;;;;6311048;28;20036;-82
2024/03/14 03:42:37;;;;;;;45.53;8.55;;;;;;;;;;6307680;27;20048;-81
2024/03/14 03:45:39;;;;;;;43.20;7.28;;;;;;;;;;6296271;28;20086;-81
2024/03/14 03:48:41;;;;;;;106.93;9.52;;;;;;;;;;6291366;28;20040;-81
2024/03/14 03:51:45;;;;;;;42.63;6.75;;;;;;;;;;6293974;28;20414;-80
2024/03/14 03:54:46;;;;;;;36.38;7.90;;;;;;;;;;6289051;28;20048;-81
2024/03/14 03:57:48;;;;;;;44.10;7.93;;;;;;;;;;6304400;28;20085;-82
2024/03/14 04:00:52;;;;;;;68.82;9.02;;;;;;;;;;6304141;27;20084;-82
2024/03/14 04:03:55;;;;;;;19.00;6.85;;;;;;;;;;6289640;28;20117;-81
2024/03/14 04:06:57;;;;;;;75.18;8.93;;;;;;;;;;6303126;28;20505;-79
2024/03/14 04:10:00;;;;;;;42.85;8.68;;;;;;;;;;6305984;28;20044;-82
2024/03/14 04:13:04;;;;;;;39.85;6.85;;;;;;;;;;6312439;28;20059;-80
2024/03/14 04:16:07;;;;;;;35.85;6.28;;;;;;;;;;6288730;28;20121;-80
2024/03/14 04:19:10;;;;;;;25.27;6.38;;;;;;;;;;6298480;28;20052;-81
2024/03/14 04:22:14;;;;;;;30.67;6.93;;;;;;;;;;6302962;28;20040;-82
2024/03/14 04:25:17;;;;;;;23.00;6.70;;;;;;;;;;6304501;28;20498;-83
2024/03/14 04:28:21;;;;;;;;;;;;;;;;;;6308291;28;20044;-80
2024/03/14 04:31:22;;;;;;;;;;;;;;;;;;6309536;28;19934;-80
2024/03/14 04:34:24;;;;;;;62.33;7.00;;;;;;;;;;6306604;28;19938;-79
2024/03/14 04:37:26;;;;;;;42.80;11.32;;;;;;;;;;6309580;28;20433;-83
2024/03/14 04:40:28;;;;;;;37.33;9.88;;;;;;;;;;6304656;28;20044;-81
2024/03/14 04:43:29;;;;;;;29.05;8.95;;;;;;;;;;6307739;28;20048;-81
2024/03/14 04:46:31;;;;;;;45.45;10.32;;;;;;;;;;6299363;27;20493;-80
2024/03/14 04:49:33;;;;;;;20.75;7.22;;;;;;;;;;6300982;28;20043;-79
2024/03/14 04:52:39;;;;;;;24.15;9.85;;;;;;;;;;6311997;28;20146;-82
2024/03/14 04:55:41;;;;;;;27.02;10.90;;;;;;;;;;6310836;27;20047;-80
2024/03/14 04:58:43;;;;;;;26.73;12.50;;;;;;;;;;6307981;28;20096;-82
2024/03/14 05:01:44;;;;;;;26.15;11.93;;;;;;;;;;6303639;28;20047;-81
2024/03/14 05:04:46;;;;;;;28.35;11.60;;;;;;;;;;6309514;27;20036;-82
2024/03/14 05:07:48;;;;;;;22.65;8.50;;;;;;;;;;6306343;28;20438;-80
2024/03/14 05:10:50;;;;;;;27.00;8.00;;;;;;;;;;6308042;28;20406;-80
2024/03/14 05:13:56;;;;;;;20.65;7.85;;;;;;;;;;6305427;28;20129;-81
2024/03/14 05:16:58;;;;;;;32.13;8.13;;;;;;;;;;6286199;27;20067;-79
2024/03/14 05:20:00;;;;;;;19.65;8.63;;;;;;;;;;6300774;28;20047;-81
2024/03/14 05:23:02;;;;;;;18.70;7.77;;;;;;;;;;6288256;28;20072;-82
2024/03/14 05:26:06;;;;;;;31.98;7.68;;;;;;;;;;6302441;28;20052;-81
2024/03/14 05:29:07;;;;;;;;;;;;;;;;;;6336054;28;20032;-78
2024/03/14 05:32:23;;;;;;;24.40;7.05;;;;;;;;;;6315204;28;19931;-79
2024/03/14 05:35:25;;;;;;;35.10;7.50;;;;;;;;;;6298157;28;20051;-83
2024/03/14 05:38:27;;;;;;;39.78;10.40;;;;;;;;;;6288169;28;20048;-83
2024/03/14 05:41:29;;;;;;;35.22;10.27;;;;;;;;;;6305326;28;20051;-83
2024/03/14 05:44:30;;;;;;;36.55;9.18;;;;;;;;;;6307895;28;20083;-83
2024/03/14 05:47:35;;;;;;;40.40;8.55;;;;;;;;;;6283683;28;20056;-84
2024/03/14 05:50:37;;;;;;;25.58;7.72;;;;;;;;;;6306881;28;20044;-83
2024/03/14 05:53:39;;;;;;;37.90;7.47;;;;;;;;;;6304271;28;20527;-83
2024/03/14 05:56:42;;;;;;;46.60;8.70;;;;;;;;;;6284324;28;20048;-84
2024/03/14 05:59:44;;;;;;;74.10;9.30;;;;;;;;;;6291260;28;20040;-83
2024/03/14 06:02:47;;;;;;;24.45;7.10;;;;;;;;;;6305214;28;20061;-84
2024/03/14 06:05:51;;;;;;;16.55;7.80;;;;;;;;;;6303974;27;20055;-83
2024/03/14 06:08:53;;;;;;;23.08;8.57;;;;;;;;;;6299687;28;20501;-83
2024/03/14 06:11:54;;;;;;;55.33;10.27;;;;;;;;;;6303305;28;20517;-82
2024/03/14 06:14:56;;;;;;;28.63;11.35;;;;;;;;;;6303253;27;20051;-85
2024/03/14 06:17:58;;;;;;;40.78;14.60;;;;;;;;;;6296324;28;20043;-83
2024/03/14 06:21:00;;;;;;;41.15;9.80;;;;;;;;;;6286682;28;20036;-84
2024/03/14 06:24:02;;;;;;;44.53;8.02;;;;;;;;;;6289341;28;20054;-84
2024/03/14 06:27:04;;;;;;;38.25;7.40;;;;;;;;;;6300352;28;20044;-84
2024/03/14 06:30:11;;;;;;;51.05;8.35;;;;;;;;;;6281630;28;20047;-84
2024/03/14 06:33:19;;;;;;;27.63;7.82;;;;;;;;;;6285956;28;20044;-83
2024/03/14 06:36:20;;;;;;;33.30;8.43;;;;;;;;;;6305550;28;20040;-82
2024/03/14 06:39:25;;;;;;;23.73;7.40;;;;;;;;;;6319787;27;20049;-84
2024/03/14 06:42:27;;;;;;;31.83;9.85;;;;;;;;;;6290972;28;20132;-84
2024/03/14 06:45:30;;;;;;;16.60;6.32;;;;;;;;;;6299370;27;20047;-85
2024/03/14 06:48:32;;;;;;;15.27;6.83;;;;;;;;;;6309374;28;20058;-84
2024/03/14 06:51:37;;;;;;;17.90;7.47;;;;;;;;;;6311471;28;21263;-84
2024/03/14 06:54:39;;;;;;;17.35;7.40;;;;;;;;;;6333943;28;20055;-83
2024/03/14 06:57:44;;;;;;;18.38;7.35;;;;;;;;;;6305893;28;20044;-83
2024/03/14 07:00:47;;;;;;;28.30;9.77;;;;;;;;;;6272750;27;20047;-84
2024/03/14 07:03:49;;;;;;;25.65;8.95;;;;;;;;;;6324403;28;20034;-81
2024/03/14 07:06:54;;;;;;;34.83;9.55;;;;;;;;;;6347018;28;20027;-82
2024/03/14 07:09:56;;;;;;;33.50;9.73;;;;;;;;;;6337728;27;20031;-82
2024/03/14 07:12:57;;;;;;;32.13;9.07;;;;;;;;;;6332341;28;20032;-82
2024/03/14 07:15:59;;;;;;;31.67;8.32;;;;;;;;;;6300649;28;20048;-82
2024/03/14 07:19:01;;;;;;;23.67;8.30;;;;;;;;;;6282414;28;20135;-85
2024/03/14 07:22:03;;;;;;;30.13;10.55;;;;;;;;;;6301339;28;20048;-84
2024/03/14 07:25:06;;;;;;;16.15;7.65;;;;;;;;;;6294381;28;20044;-83
2024/03/14 07:28:12;;;;;;;23.83;8.20;;;;;;;;;;6281782;28;20178;-84
2024/03/14 07:31:17;;;;;;;30.42;11.00;;;;;;;;;;6262377;27;20127;-84
2024/03/14 07:34:19;;;;;;;18.25;7.35;;;;;;;;;;6292656;28;20044;-82
2024/03/14 07:37:23;;;;;;;20.67;8.57;;;;;;;;;;6297703;28;20044;-81
2024/03/14 07:40:32;;;;;;;17.00;8.10;;;;;;;;;;6299741;28;20049;-82
2024/03/14 07:43:35;;;;;;;19.65;8.27;;;;;;;;;;6301361;28;20052;-81
2024/03/14 07:46:37;;;;;;;44.63;27.75;;;;;;;;;;6290355;28;20425;-82
2024/03/14 07:49:39;;;;;;;21.65;11.18;;;;;;;;;;6297199;28;20059;-81
2024/03/14 07:52:41;;;;;;;18.20;9.18;;;;;;;;;;6298754;28;20111;-83
2024/03/14 07:55:43;;;;;;;20.27;8.90;;;;;;;;;;6280717;28;20052;-82
2024/03/14 07:58:46;;;;;;;19.02;8.93;;;;;;;;;;6296810;28;20042;-81
2024/03/14 08:01:50;;;;;;;16.80;8.90;;;;;;;;;;6296541;28;20071;-82
2024/03/14 08:04:52;;;;;;;16.58;8.27;;;;;;;;;;6301422;28;20047;-82
2024/03/14 08:07:53;;;;;;;18.50;9.07;;;;;;;;;;6294926;28;20040;-83
2024/03/14 08:11:17;;;;;;;16.90;7.55;;;;;;;;;;6282439;28;20052;-83
2024/03/14 08:14:19;;;;;;;14.07;7.90;;;;;;;;;;6267734;28;20048;-83
2024/03/14 08:17:21;;;;;;;18.85;8.70;;;;;;;;;;6292319;28;20036;-84
2024/03/14 08:20:24;;;;;;;19.08;10.50;;;;;;;;;;6286731;28;20379;-83
2024/03/14 08:23:26;;;;;;;15.82;8.88;;;;;;;;;;6287605;28;20052;-82
2024/03/14 08:26:30;;;;;;;14.63;7.93;;;;;;;;;;6276314;28;20041;-84
2024/03/14 08:29:32;;;;;;;16.63;8.85;;;;;;;;;;6278375;28;20145;-83
2024/03/14 08:32:35;;;;;;;14.20;8.18;;;;;;;;;;6289028;28;20078;-83
2024/03/14 08:35:42;;;;;;;15.05;9.00;;;;;;;;;;6291577;28;20044;-80
2024/03/14 08:38:45;;;;;;;16.15;8.48;;;;;;;;;;6297940;28;20326;-79
2024/03/14 08:41:47;;;;;;;15.68;8.80;;;;;;;;;;6311615;28;20120;-76
2024/03/14 08:44:50;;;;;;;22.13;12.32;;;;;;;;;;6302904;28;20063;-80
2024/03/14 08:47:52;;;;;;;14.98;7.45;;;;;;;;;;6273233;28;20066;-80
2024/03/14 08:50:54;;;;;;;15.63;7.57;;;;;;;;;;6279921;28;20547;-84
2024/03/14 08:54:08;;;;;;;10.18;6.50;;;;;;;;;;6267790;28;20044;-85
2024/03/14 08:57:12;;;;;;;8.93;5.60;;;;;;;;;;6313068;28;20063;-82
2024/03/14 09:00:17;;;;;;;8.18;5.55;;;;;;;;;;6297561;28;20048;-84
2024/03/14 09:03:22;;;;;;;8.65;5.10;;;;;;;;;;6303016;28;20159;-82
2024/03/14 09:06:28;;;;;;;8.50;5.18;;;;;;;;;;6305477;28;20047;-83
2024/03/14 09:09:34;;;;;;;8.38;5.15;;;;;;;;;;6270978;28;20041;-84
2024/03/14 09:12:37;;;;;;;8.02;4.80;;;;;;;;;;6269318;28;20099;-84
2024/03/14 09:15:39;;;;;;;9.40;4.82;;;;;;;;;;6268952;28;20799;-84
2024/03/14 09:18:41;;;;;;;7.35;4.43;;;;;;;;;;6312347;28;20027;-84
2024/03/14 09:21:43;;;;;;;7.90;4.35;;;;;;;;;;6351597;27;20074;-82
2024/03/14 09:24:45;;;;;;;11.60;4.85;;;;;;;;;;6289827;28;20078;-84
2024/03/14 09:27:47;;;;;;;6.95;4.70;;;;;;;;;;6266754;28;20102;-85
2024/03/14 09:30:57;;;;;;;7.40;4.70;;;;;;;;;;6305051;28;20413;-84
2024/03/14 09:34:00;;;;;;;7.30;3.97;;;;;;;;;;6311454;28;20048;-84
2024/03/14 09:37:02;;;;;;;6.30;3.97;;;;;;;;;;6319642;27;20052;-85
2024/03/14 09:40:07;;;;;;;7.63;3.83;;;;;;;;;;6310551;27;20446;-84
2024/03/14 09:43:14;;;;;;;6.70;3.78;;;;;;;;;;6302947;28;20418;-85
2024/03/14 09:46:22;;;;;;;6.35;4.13;;;;;;;;;;6288985;28;20044;-84
2024/03/14 09:49:24;;;;;;;5.63;3.70;;;;;;;;;;6302947;27;20036;-84
2024/03/14 09:52:26;;;;;;;7.27;4.40;;;;;;;;;;6309258;28;20040;-83
2024/03/14 09:55:30;;;;;;;8.15;3.22;;;;;;;;;;6309179;28;20629;-84
2024/03/14 09:58:32;;;;;;;6.43;3.17;;;;;;;;;;6321336;28;20820;-85
2024/03/14 10:01:34;;;;;;;5.43;3.38;;;;;;;;;;6312304;28;20046;-84
2024/03/14 10:04:36;;;;;;;4.38;3.20;;;;;;;;;;6320186;28;20036;-84
2024/03/14 10:07:39;;;;;;;5.47;3.10;;;;;;;;;;6328615;28;20101;-82
2024/03/14 10:10:41;;;;;;;4.72;2.90;;;;;;;;;;6335920;28;20040;-83
2024/03/14 10:13:43;;;;;;;3.65;2.75;;;;;;;;;;6332731;27;20058;-82
2024/03/14 10:16:45;;;;;;;7.18;3.35;;;;;;;;;;6331425;28;20126;-82
2024/03/14 10:19:47;;;;;;;3.63;2.55;;;;;;;;;;6332439;28;20045;-82
2024/03/14 10:22:51;;;;;;;4.05;2.78;;;;;;;;;;6336276;28;20035;-82
2024/03/14 10:25:53;;;;;;;5.05;2.80;;;;;;;;;;6335336;28;20115;-82
2024/03/14 10:28:57;;;;;;;5.18;2.70;;;;;;;;;;6327203;28;20074;-82
2024/03/14 10:32:00;;;;;;;8.35;3.90;;;;;;;;;;6306805;28;20161;-82
2024/03/14 10:35:02;;;;;;;3.65;2.20;;;;;;;;;;6318764;28;20044;-82
2024/03/14 10:38:11;;;;;;;5.53;2.50;;;;;;;;;;6302855;28;20025;-83
2024/03/14 10:41:17;;;;;;;6.22;2.80;;;;;;;;;;6323960;28;20079;-84
2024/03/14 10:44:24;;;;;;;4.55;3.00;;;;;;;;;;6330107;28;20055;-83
2024/03/14 10:47:27;;;;;;;2.63;2.22;;;;;;;;;;6316870;28;20044;-82
2024/03/14 10:50:30;;;;;;;7.72;2.63;;;;;;;;;;6286969;28;20039;-83
2024/03/14 10:53:36;;;;;;;3.13;2.20;;;;;;;;;;6300722;28;20066;-83
2024/03/14 10:56:40;;;;;;;5.93;2.42;;;;;;;;;;6316070;28;20059;-84
2024/03/14 10:59:45;;;;;;;3.88;2.22;;;;;;;;;;6309853;28;20443;-85
2024/03/14 11:02:49;;;;;;;;;;;;;;;;;;6312217;27;20465;-85
2024/03/14 11:05:55;;;;;;;3.03;1.98;;;;;;;;;;6316155;27;19994;-85
2024/03/14 11:08:59;;;;;;;3.90;1.98;;;;;;;;;;6315058;28;20040;-83
2024/03/14 11:12:03;;;;;;;4.78;2.42;;;;;;;;;;6314308;28;20126;-83
2024/03/14 11:15:11;;;;;;;2.78;1.73;;;;;;;;;;6300808;28;20040;-84
2024/03/14 11:18:16;;;;;;;4.97;1.80;;;;;;;;;;6312974;28;20053;-84
2024/03/14 11:21:25;;;;;;;2.97;2.10;;;;;;;;;;6287792;28;20625;-84
2024/03/14 11:24:30;;;;;;;3.28;2.03;;;;;;;;;;6329423;28;20038;-84
2024/03/14 11:27:34;;;;;;;4.43;2.17;;;;;;;;;;6344703;28;20059;-83
2024/03/14 11:30:37;;;;;;;3.25;2.15;;;;;;;;;;6318426;28;20140;-82
2024/03/14 11:33:40;;;;;;;7.68;2.88;;;;;;;;;;6307180;27;20051;-83
2024/03/14 11:36:50;;;;;;;4.03;2.13;;;;;;;;;;6318828;28;20063;-83
2024/03/14 11:39:52;;;;;;;7.63;2.30;;;;;;;;;;6319051;28;20050;-84
2024/03/14 11:42:55;;;;;;;6.55;2.58;;;;;;;;;;6312998;28;20040;-84
2024/03/14 11:46:04;;;;;;;4.20;2.47;;;;;;;;;;6312990;28;20035;-85
2024/03/14 11:49:20;;;;;;;3.58;2.25;;;;;;;;;;6307303;28;20043;-85
2024/03/14 11:52:22;;;;;;;3.35;2.45;;;;;;;;;;6330667;27;20055;-84
2024/03/14 11:55:24;;;;;;;3.95;2.40;;;;;;;;;;6314365;28;20059;-84
2024/03/14 11:58:26;;;;;;;7.75;3.05;;;;;;;;;;6313533;28;20037;-83
2024/03/14 12:01:31;;;;;;;4.67;2.07;;;;;;;;;;6299331;28;20441;-84
2024/03/14 12:04:50;;;;;;;4.60;2.60;;;;;;;;;;6315723;28;20051;-83
2024/03/14 12:07:54;;;;;;;5.50;2.63;;;;;;;;;;6313414;28;20046;-83
2024/03/14 12:10:56;;;;;;;6.07;2.92;;;;;;;;;;6293369;28;20155;-84
2024/03/14 12:14:00;;;;;;;6.50;3.17;;;;;;;;;;6314702;28;20055;-81
2024/03/14 12:17:01;;;;;;;5.05;3.00;;;;;;;;;;6290351;28;20049;-81
2024/03/14 12:20:10;;;;;;;4.97;2.75;;;;;;;;;;6308608;28;20047;-82
2024/03/14 12:23:12;;;;;;;5.18;3.03;;;;;;;;;;6312431;28;20086;-82
2024/03/14 12:26:17;;;;;;;4.45;2.78;;;;;;;;;;6309189;28;20048;-82
2024/03/14 12:29:20;;;;;;;6.22;3.60;;;;;;;;;;6309470;28;20059;-83
2024/03/14 12:32:22;;;;;;;6.05;3.05;;;;;;;;;;6307239;28;20048;-83
2024/03/14 12:35:24;;;;;;;4.63;2.40;;;;;;;;;;6305104;28;20044;-84
2024/03/14 12:38:27;;;;;;;4.13;2.45;;;;;;;;;;6301159;28;20036;-84
2024/03/14 12:41:30;;;;;;;4.28;2.75;;;;;;;;;;6327920;28;20596;-85
2024/03/14 12:44:32;;;;;;;6.35;3.08;;;;;;;;;;6319129;28;20043;-84
2024/03/14 12:47:34;;;;;;;5.75;3.08;;;;;;;;;;6304890;28;20052;-82
2024/03/14 12:50:36;;;;;;;4.75;2.90;;;;;;;;;;6317723;28;20032;-83
2024/03/14 12:53:58;;;;;;;4.22;2.60;;;;;;;;;;6338850;28;20024;-83
2024/03/14 12:57:01;;;;;;;5.10;2.90;;;;;;;;;;6319372;28;20097;-84
2024/03/14 13:00:03;;;;;;;;;;;;;;;;;;6308095;28;20103;-85
2024/03/14 13:03:04;;;;;;;5.63;2.58;;;;;;;;;;6300498;28;19920;-84
2024/03/14 13:06:09;;;;;;;4.13;2.63;;;;;;;;;;6297823;28;20032;-84
2024/03/14 13:09:21;;;;;;;5.03;2.80;;;;;;;;;;6310092;28;20052;-84
2024/03/14 13:12:23;;;;;;;5.65;3.08;;;;;;;;;;6309713;28;20040;-83
2024/03/14 13:15:25;;;;;;;4.60;2.60;;;;;;;;;;6290983;28;20126;-84
2024/03/14 13:18:27;;;;;;;6.07;2.65;;;;;;;;;;6303940;28;20169;-84
2024/03/14 13:21:42;;;;;;;6.75;2.45;;;;;;;;;;6311824;28;20044;-84
2024/03/14 13:24:44;;;;;;;3.88;2.13;;;;;;;;;;6306526;28;20520;-84
2024/03/14 13:27:46;;;;;;;5.00;2.20;;;;;;;;;;6299730;28;20044;-86
2024/03/14 13:30:50;;;;;;;3.97;2.17;;;;;;;;;;6297371;28;20055;-84
2024/03/14 13:33:54;;;;;;;3.83;1.98;;;;;;;;;;6295945;28;20501;-83
2024/03/14 13:36:56;;;;;;;3.60;2.03;;;;;;;;;;6308542;28;20128;-82
2024/03/14 13:39:58;;;;;;;5.25;2.20;;;;;;;;;;6270486;28;20045;-81
2024/03/14 13:43:01;;;;;;;3.72;2.08;;;;;;;;;;6297783;27;20031;-81
2024/03/14 13:46:02;;;;;;;4.18;1.85;;;;;;;;;;6316460;28;20051;-82
2024/03/14 13:49:11;;;;;;;4.60;1.80;;;;;;;;;;6297223;27;20048;-82
2024/03/14 13:52:14;;;;;;;3.28;1.67;;;;;;;;;;6317670;28;20044;-81
2024/03/14 13:55:24;;;;;;;2.92;1.77;;;;;;;;;;6322379;28;20032;-80
2024/03/14 13:58:26;;;;;;;4.55;1.60;;;;;;;;;;6319753;28;20506;-82
2024/03/14 14:01:33;;;;;;;4.72;1.88;;;;;;;;;;6317981;28;20063;-84
2024/03/14 14:04:38;;;;;;;3.75;2.03;;;;;;;;;;6315308;27;20044;-82
2024/03/14 14:07:39;;;;;;;3.05;1.90;;;;;;;;;;6301766;28;20047;-84
2024/03/14 14:10:51;;;;;;;2.70;1.60;;;;;;;;;;6311312;28;20078;-85
2024/03/14 14:13:55;;;;;;;3.10;1.80;;;;;;;;;;6306733;27;20051;-85
2024/03/14 14:16:58;;;;;;;2.03;1.40;;;;;;;;;;6285616;28;20112;-84
2024/03/14 14:20:06;;;;;;;5.25;1.67;;;;;;;;;;6297366;28;20051;-83
2024/03/14 14:23:08;;;;;;;3.67;1.70;;;;;;;;;;6308602;28;20044;-84
2024/03/14 14:26:12;;;;;;;5.43;1.73;;;;;;;;;;6280297;28;20051;-84
2024/03/14 14:29:14;;;;;;;3.50;1.70;;;;;;;;;;6301241;28;20063;-83
2024/03/14 14:32:16;;;;;;;4.88;1.70;;;;;;;;;;6283464;28;20056;-84
2024/03/14 14:35:21;;;;;;;5.60;2.17;;;;;;;;;;6295522;28;20052;-84
2024/03/14 14:38:24;;;;;;;1.90;1.70;;;;;;;;;;6294394;28;20052;-84
2024/03/14 14:41:25;;;;;;;3.28;1.80;;;;;;;;;;6302277;28;20063;-85
2024/03/14 14:44:27;;;;;;;4.43;1.90;;;;;;;;;;6303419;28;20047;-85
2024/03/14 14:47:29;;;;;;;3.88;2.05;;;;;;;;;;6310973;27;20296;-84
2024/03/14 14:50:31;;;;;;;3.08;1.85;;;;;;;;;;6328871;27;20068;-84
2024/03/14 14:53:34;;;;;;;4.20;2.20;;;;;;;;;;6286431;28;20111;-84
2024/03/14 14:56:40;;;;;;;;;;;;;;;;;;6308497;28;20036;-84
2024/03/14 14:59:42;;;;;;;3.08;2.00;;;;;;;;;;6308270;27;20011;-84
2024/03/14 15:02:47;;;;;;;4.38;1.75;;;;;;;;;;6292321;28;20055;-84
2024/03/14 15:05:50;;;;;;;5.25;1.65;;;;;;;;;;6306067;28;20051;-82
2024/03/14 15:08:52;;;;;;;3.50;2.13;;;;;;;;;;6315500;28;20077;-84
2024/03/14 15:11:55;;;;;;;2.40;2.00;;;;;;;;;;6317599;28;20047;-82
2024/03/14 15:14:57;;;;;;;5.60;2.22;;;;;;;;;;6304300;28;20061;-83
2024/03/14 15:17:59;;;;;;;3.07;1.80;;;;;;;;;;6309954;28;20054;-83
2024/03/14 15:21:03;;;;;;;3.05;1.73;;;;;;;;;;6311944;28;20047;-84
2024/03/14 15:24:05;;;;;;;3.60;2.42;;;;;;;;;;6298942;28;20924;-84
2024/03/14 15:27:09;;;;;;;3.38;2.05;;;;;;;;;;6276496;28;20178;-85
2024/03/14 15:30:12;;;;;;;3.63;2.42;;;;;;;;;;6296807;28;20048;-82
2024/03/14 15:33:15;;;;;;;12.70;6.53;;;;;;;;;;6319021;28;20047;-82
2024/03/14 15:36:18;;;;;;;4.78;2.60;;;;;;;;;;6339407;28;20031;-82
2024/03/14 15:39:20;;;;;;;3.45;1.90;;;;;;;;;;6336386;28;20052;-82
2024/03/14 15:42:22;;;;;;;4.05;1.83;;;;;;;;;;6337524;28;20054;-81
2024/03/14 15:45:24;;;;;;;2.58;1.60;;;;;;;;;;6325776;28;20032;-81
2024/03/14 15:48:27;;;;;;;2.33;1.80;;;;;;;;;;6305525;27;20134;-82
2024/03/14 15:51:32;;;;;;;3.58;1.70;;;;;;;;;;6312942;28;20051;-83
2024/03/14 15:54:34;;;;;;;3.17;1.52;;;;;;;;;;6301844;28;20518;-83
2024/03/14 15:57:38;;;;;;;2.42;1.77;;;;;;;;;;6307561;28;20127;-83
2024/03/14 16:00:40;;;;;;;2.90;2.10;;;;;;;;;;6305482;27;20119;-82
2024/03/14 16:03:42;;;;;;;2.60;1.70;;;;;;;;;;6297703;28;20129;-83
2024/03/14 16:06:46;;;;;;;1.97;1.70;;;;;;;;;;6301684;28;20036;-82
2024/03/14 16:09:48;;;;;;;4.10;1.83;;;;;;;;;;6297139;28;20059;-81
2024/03/14 16:12:51;;;;;;;3.38;1.98;;;;;;;;;;6292807;28;20043;-83
2024/03/14 16:15:53;;;;;;;5.18;2.00;;;;;;;;;;6305455;28;20521;-83
2024/03/14 16:18:56;;;;;;;2.65;1.73;;;;;;;;;;6310192;28;20055;-81
2024/03/14 16:21:58;;;;;;;2.72;1.63;;;;;;;;;;6287106;28;20063;-82
2024/03/14 16:25:00;;;;;;;2.75;1.60;;;;;;;;;;6331212;28;20044;-81
2024/03/14 16:28:03;;;;;;;4.45;1.42;;;;;;;;;;6332014;28;20031;-80
2024/03/14 16:31:08;;;;;;;;;;;;;;;;;;6341453;28;20415;-82
2024/03/14 16:34:09;;;;;;;4.35;1.67;;;;;;;;;;6331651;28;19928;-83
2024/03/14 16:37:11;;;;;;;1.60;1.27;;;;;;;;;;6316785;27;20048;-84
2024/03/14 16:40:14;;;;;;;2.60;1.67;;;;;;;;;;6292400;28;20499;-83
2024/03/14 16:43:15;;;;;;;2.80;1.70;;;;;;;;;;6301255;28;20048;-82
2024/03/14 16:46:17;;;;;;;3.55;1.60;;;;;;;;;;6305981;28;20041;-80
2024/03/14 16:49:19;;;;;;;4.60;2.38;;;;;;;;;;6278990;28;20045;-81
2024/03/14 16:52:21;;;;;;;2.88;2.33;;;;;;;;;;6274433;28;20048;-80
2024/03/14 16:55:24;;;;;;;3.97;2.35;;;;;;;;;;6267344;28;20048;-83
2024/03/14 16:58:29;;;;;;;10.68;8.43;;;;;;;;;;6278329;28;20109;-81
2024/03/14 17:01:32;;;;;;;5.10;2.67;;;;;;;;;;6292720;28;20049;-83
2024/03/14 17:04:34;;;;;;;7.47;6.50;;;;;;;;;;6295508;28;20181;-82
2024/03/14 17:07:35;;;;;;;10.57;7.93;;;;;;;;;;6303570;28;20036;-83
2024/03/14 17:10:37;;;;;;;10.55;8.57;;;;;;;;;;6297831;28;20047;-82
2024/03/14 17:13:39;;;;;;;9.35;7.38;;;;;;;;;;6298589;28;20051;-82
2024/03/14 17:16:42;;;;;;;55.00;29.15;;;;;;;;;;6303778;28;20052;-83
2024/03/14 17:19:43;;;;;;;13.70;8.10;;;;;;;;;;6309692;28;20052;-85
2024/03/14 17:22:47;;;;;;;16.83;9.07;;;;;;;;;;6310690;28;20047;-83
2024/03/14 17:25:50;;;;;;;11.80;6.18;;;;;;;;;;6282148;28;20049;-83
2024/03/14 17:28:51;;;;;;;13.32;8.30;;;;;;;;;;6294159;28;20049;-82
2024/03/14 17:31:53;;;;;;;7.38;5.65;;;;;;;;;;6284722;28;20110;-81
2024/03/14 17:34:54;;;;;;;7.78;5.55;;;;;;;;;;6306883;28;20044;-84
2024/03/14 17:37:57;;;;;;;12.00;6.53;;;;;;;;;;6293786;28;20698;-84
2024/03/14 17:41:04;;;;;;;13.30;11.77;;;;;;;;;;6304502;28;20434;-84
2024/03/14 17:44:06;;;;;;;21.73;15.07;;;;;;;;;;6294518;28;20059;-84
2024/03/14 17:47:07;;;;;;;17.10;11.52;;;;;;;;;;6281794;28;20044;-83
2024/03/14 17:50:12;;;;;;;14.10;9.88;;;;;;;;;;6269478;28;20049;-84
2024/03/14 17:53:14;;;;;;;19.17;9.20;;;;;;;;;;6292049;28;20044;-83
2024/03/14 17:56:18;;;;;;;6.73;4.10;;;;;;;;;;6293532;28;20053;-86
2024/03/14 17:59:30;;;;;;;9.02;4.50;;;;;;;;;;6260269;28;20587;-84
2024/03/14 18:02:32;;;;;;;11.38;6.88;;;;;;;;;;6296569;28;20051;-85
2024/03/14 18:05:34;;;;;;;8.75;4.78;;;;;;;;;;6302121;28;20458;-83
2024/03/14 18:08:35;;;;;;;6.05;3.85;;;;;;;;;;6304383;28;20055;-82
2024/03/14 18:11:41;;;;;;;6.88;5.60;;;;;;;;;;6285267;28;20048;-83